Time;durP1;ratioP1;P1;durP2;ratioP2;P2;SDS_P1;SDS_P2;PMS_P1;PMS_P2;Temp;Humidity;BMP_temperature;BMP_pressure;BME280_temperature;BME280_humidity;BME280_pressure;Samples;Min_cycle;Max_cycle;Signal;HPM_P1;HPM_P2
2024/01/11 00:01:46;;;;;;;30.15;14.73;;;-0.70;75.80;;;;;;4994954;28;20100;-74
2024/01/11 00:04:12;;;;;;;29.73;14.55;;;-0.90;76.20;;;;;;4993899;28;20034;-75
2024/01/11 00:06:44;;;;;;;31.50;14.50;;;-1.00;76.90;;;;;;4994778;28;20041;-74
2024/01/11 00:09:10;;;;;;;29.67;13.68;;;-0.80;77.70;;;;;;4995565;28;20084;-76
2024/01/11 00:11:36;;;;;;;28.75;13.50;;;-0.60;77.30;;;;;;4995347;28;20369;-75
2024/01/11 00:14:01;;;;;;;27.67;13.48;;;-0.50;76.20;;;;;;4994529;28;20065;-73
2024/01/11 00:16:27;;;;;;;27.23;13.27;;;-0.40;75.90;;;;;;4993819;28;20034;-73
2024/01/11 00:18:53;;;;;;;28.98;13.88;;;-0.50;75.60;;;;;;4993702;28;20054;-73
2024/01/11 00:21:18;;;;;;;28.70;13.82;;;-0.60;76.20;;;;;;4993809;28;20473;-74
2024/01/11 00:23:44;;;;;;;29.50;12.52;;;-0.60;76.50;;;;;;4996170;28;20046;-79
2024/01/11 00:26:12;;;;;;;28.67;13.52;;;-0.50;76.70;;;;;;4994575;28;20042;-74
2024/01/11 00:28:38;;;;;;;24.27;12.68;;;-0.50;76.10;;;;;;4994364;28;20034;-74
2024/01/11 00:31:04;;;;;;;30.23;13.07;;;-0.50;76.10;;;;;;4994864;28;20162;-76
2024/01/11 00:33:30;;;;;;;27.38;13.07;;;-0.80;76.40;;;;;;4993313;28;20073;-75
2024/01/11 00:35:56;;;;;;;28.25;13.00;;;-1.00;77.10;;;;;;4992954;28;20120;-74
2024/01/11 00:38:21;;;;;;;24.70;12.35;;;-1.10;77.80;;;;;;4993227;28;20034;-75
2024/01/11 00:40:47;;;;;;;29.27;12.88;;;-1.20;78.50;;;;;;4993132;28;20030;-75
2024/01/11 00:43:13;;;;;;;25.67;12.38;;;-1.10;78.50;;;;;;4977115;28;20450;-75
2024/01/11 00:45:38;;;;;;;27.02;12.60;;;-1.10;78.80;;;;;;4993460;28;20032;-74
2024/01/11 00:48:04;;;;;;;21.98;11.32;;;-1.10;78.60;;;;;;4994458;28;20488;-74
2024/01/11 00:50:30;;;;;;;28.73;11.70;;;-1.30;78.60;;;;;;4994051;28;20034;-74
2024/01/11 00:52:56;;;;;;;26.05;13.77;;;-1.50;79.10;;;;;;4992521;28;20452;-75
2024/01/11 00:55:22;;;;;;;24.90;12.18;;;-1.70;79.80;;;;;;4994867;28;20117;-75
2024/01/11 00:57:48;;;;;;;27.17;11.93;;;-1.60;80.40;;;;;;4994492;28;20461;-76
2024/01/11 01:00:14;;;;;;;23.42;11.88;;;-1.40;80.50;;;;;;4994267;28;20081;-75
2024/01/11 01:02:40;;;;;;;27.92;13.30;;;-1.20;79.70;;;;;;4994591;28;20057;-76
2024/01/11 01:05:06;;;;;;;25.52;12.32;;;-1.30;79.60;;;;;;4977354;28;20034;-75
2024/01/11 01:07:32;;;;;;;28.15;12.25;;;-1.40;79.60;;;;;;4993300;28;20043;-76
2024/01/11 01:09:57;;;;;;;27.08;12.85;;;-1.50;80.00;;;;;;4993779;28;20045;-76
2024/01/11 01:12:24;;;;;;;23.15;11.35;;;-1.50;80.00;;;;;;4996442;28;20114;-75
2024/01/11 01:14:51;;;;;;;28.58;12.65;;;-1.50;80.30;;;;;;4995151;28;20025;-76
2024/01/11 01:17:16;;;;;;;26.73;12.60;;;-1.50;80.40;;;;;;4994064;28;20037;-75
2024/01/11 01:19:42;;;;;;;25.80;12.40;;;-1.60;80.60;;;;;;4977174;28;20034;-78
2024/01/11 01:22:08;;;;;;;25.42;12.00;;;-1.60;80.80;;;;;;4994172;28;20127;-80
2024/01/11 01:24:33;;;;;;;25.08;11.43;;;-1.40;80.70;;;;;;4992418;28;20432;-79
2024/01/11 01:26:59;;;;;;;29.00;12.55;;;-1.30;80.30;;;;;;4992492;28;20034;-79
2024/01/11 01:29:24;;;;;;;26.30;12.88;;;-1.30;80.00;;;;;;4994179;28;20029;-79
2024/01/11 01:31:51;;;;;;;28.08;13.57;;;-1.30;80.20;;;;;;4977019;28;20038;-79
2024/01/11 01:34:17;;;;;;;27.10;11.80;;;-1.30;80.20;;;;;;4993012;28;20093;-78
2024/01/11 01:36:42;;;;;;;25.17;12.38;;;-1.30;80.30;;;;;;4992158;28;20428;-79
2024/01/11 01:39:08;;;;;;;21.55;11.30;;;-1.20;80.20;;;;;;4976368;28;20066;-79
2024/01/11 01:41:34;;;;;;;23.63;11.85;;;-1.10;80.20;;;;;;4992842;28;20034;-79
2024/01/11 01:43:59;;;;;;;25.38;11.38;;;-1.00;79.70;;;;;;4993653;28;20041;-78
2024/01/11 01:46:27;;;;;;;27.05;12.00;;;-0.80;79.60;;;;;;4992769;28;20085;-78
2024/01/11 01:48:54;;;;;;;23.98;12.40;;;-0.80;79.00;;;;;;4994236;28;20030;-78
2024/01/11 01:51:21;;;;;;;24.33;12.27;;;-1.00;79.20;;;;;;4992798;28;20224;-79
2024/01/11 01:53:51;;;;;;;27.85;12.07;;;-1.10;79.60;;;;;;4993590;28;20038;-79
2024/01/11 01:56:18;;;;;;;21.55;11.57;;;-1.10;79.90;;;;;;4993337;28;20049;-79
2024/01/11 01:58:43;;;;;;;24.40;11.65;;;-1.20;80.70;;;;;;4992303;28;20114;-78
2024/01/11 02:01:09;;;;;;;22.52;11.45;;;-1.40;80.30;;;;;;4992217;28;20152;-79
2024/01/11 02:03:36;;;;;;;27.85;12.02;;;-1.20;80.60;;;;;;4993436;28;20045;-79
2024/01/11 02:06:04;;;;;;;24.70;11.77;;;-1.30;80.60;;;;;;4991981;28;20094;-78
2024/01/11 02:08:31;;;;;;;27.00;11.77;;;-1.30;80.90;;;;;;4991955;28;20376;-78
2024/01/11 02:10:59;;;;;;;23.02;11.07;;;-1.30;80.90;;;;;;4993924;28;20030;-78
2024/01/11 02:13:25;;;;;;;22.42;11.68;;;-1.30;81.60;;;;;;4993321;28;20136;-79
2024/01/11 02:15:50;;;;;;;27.95;12.52;;;-1.20;81.00;;;;;;4992187;28;20054;-78
2024/01/11 02:18:16;;;;;;;20.50;11.48;;;-1.30;80.80;;;;;;4993469;28;20111;-78
2024/01/11 02:20:42;;;;;;;23.02;11.75;;;-1.40;81.00;;;;;;4991664;28;20081;-78
2024/01/11 02:23:14;;;;;;;23.80;12.00;;;-1.60;81.70;;;;;;4992551;28;20041;-78
2024/01/11 02:25:40;;;;;;;24.05;11.55;;;-1.60;82.10;;;;;;4992699;28;20026;-78
2024/01/11 02:28:06;;;;;;;24.50;11.63;;;-1.50;82.00;;;;;;4993547;28;20462;-78
2024/01/11 02:30:32;;;;;;;22.67;11.75;;;-1.40;81.60;;;;;;4991950;28;20154;-79
2024/01/11 02:32:58;;;;;;;23.98;12.05;;;-1.50;81.80;;;;;;4993238;28;20529;-79
2024/01/11 02:35:25;;;;;;;25.58;12.10;;;-1.70;82.20;;;;;;4993622;28;20035;-79
2024/01/11 02:37:51;;;;;;;24.63;11.75;;;-1.60;82.50;;;;;;4993213;28;20077;-79
2024/01/11 02:40:19;;;;;;;25.52;13.02;;;-1.60;82.50;;;;;;4993223;28;20061;-79
2024/01/11 02:42:44;;;;;;;26.73;11.77;;;-1.70;82.60;;;;;;4993092;28;20089;-79
2024/01/11 02:45:14;;;;;;;25.38;11.88;;;-1.90;83.10;;;;;;4992803;28;20034;-79
2024/01/11 02:47:40;;;;;;;26.30;12.55;;;-2.00;84.00;;;;;;4979818;28;20544;-79
2024/01/11 02:50:07;;;;;;;25.27;12.52;;;-2.10;84.40;;;;;;4995646;28;20109;-79
2024/01/11 02:52:33;;;;;;;24.83;12.77;;;-2.10;84.70;;;;;;4996691;28;20041;-79
2024/01/11 02:54:59;;;;;;;27.40;13.50;;;-2.20;85.00;;;;;;4996929;28;20041;-79
2024/01/11 02:57:24;;;;;;;25.77;11.98;;;-2.10;85.00;;;;;;4996631;28;20038;-79
2024/01/11 02:59:51;;;;;;;21.25;11.23;;;-2.10;85.00;;;;;;4996329;28;20115;-79
2024/01/11 03:02:17;;;;;;;30.42;13.00;;;-1.90;84.70;;;;;;4996281;28;20026;-79
2024/01/11 03:04:43;;;;;;;22.77;11.52;;;-1.70;84.00;;;;;;4996649;28;20085;-79
2024/01/11 03:07:08;;;;;;;25.52;12.57;;;-1.50;83.70;;;;;;4995227;28;20058;-79
2024/01/11 03:09:34;;;;;;;24.25;11.70;;;-1.40;83.30;;;;;;4994882;28;20031;-79
2024/01/11 03:12:00;;;;;;;24.13;11.63;;;-1.30;83.00;;;;;;4996802;28;20030;-79
2024/01/11 03:14:26;;;;;;;22.10;10.75;;;-1.20;82.60;;;;;;4995093;28;20469;-79
2024/01/11 03:16:51;;;;;;;23.38;11.57;;;-0.90;82.50;;;;;;4996213;28;20026;-79
2024/01/11 03:19:17;;;;;;;22.58;12.20;;;-0.80;82.00;;;;;;4979166;28;20486;-79
2024/01/11 03:21:46;;;;;;;24.10;12.00;;;-0.70;81.40;;;;;;4978236;28;20060;-79
2024/01/11 03:24:13;;;;;;;26.77;13.52;;;-0.70;81.60;;;;;;4996377;28;20045;-79
2024/01/11 03:26:39;;;;;;;24.55;12.68;;;-0.70;81.40;;;;;;4994461;28;20066;-79
2024/01/11 03:29:05;;;;;;;22.67;11.95;;;-0.80;81.30;;;;;;4994685;28;20037;-79
2024/01/11 03:31:31;;;;;;;23.40;11.93;;;-1.00;81.50;;;;;;4995169;28;20026;-79
2024/01/11 03:33:57;;;;;;;23.88;12.50;;;-1.20;82.10;;;;;;4994547;28;20044;-79
2024/01/11 03:36:25;;;;;;;23.27;12.45;;;-1.30;82.90;;;;;;4995850;28;20030;-79
2024/01/11 03:38:51;;;;;;;23.20;12.57;;;-1.30;83.00;;;;;;4996083;28;20050;-79
2024/01/11 03:41:17;;;;;;;26.67;13.32;;;-1.60;83.60;;;;;;4996343;28;20065;-80
2024/01/11 03:43:42;;;;;;;25.23;13.07;;;-2.00;84.70;;;;;;4995237;28;20030;-79
2024/01/11 03:46:08;;;;;;;25.45;12.23;;;-2.00;85.50;;;;;;4996259;28;20030;-79
2024/01/11 03:48:37;;;;;;;26.17;13.18;;;-2.10;86.00;;;;;;4996103;28;20037;-79
2024/01/11 03:51:02;;;;;;;25.98;12.68;;;-2.30;86.50;;;;;;4996390;28;20042;-79
2024/01/11 03:53:28;;;;;;;27.58;13.02;;;-2.50;87.40;;;;;;4997748;28;20129;-79
2024/01/11 03:55:54;;;;;;;25.60;12.75;;;-2.50;88.00;;;;;;4997842;28;20450;-79
2024/01/11 03:58:20;;;;;;;26.45;13.27;;;-2.50;88.10;;;;;;4996237;28;20495;-79
2024/01/11 04:00:45;;;;;;;27.63;12.43;;;-2.50;88.10;;;;;;4996745;28;20465;-79
2024/01/11 04:03:11;;;;;;;26.00;12.65;;;-2.20;87.80;;;;;;4996115;28;20084;-79
2024/01/11 04:05:36;;;;;;;28.50;13.13;;;-2.10;87.30;;;;;;4995635;28;20142;-79
2024/01/11 04:08:06;;;;;;;28.20;12.70;;;-1.90;87.00;;;;;;4995019;28;20149;-79
2024/01/11 04:10:32;;;;;;;28.15;13.68;;;-1.80;86.90;;;;;;4996094;28;20022;-79
2024/01/11 04:12:57;;;;;;;31.27;14.20;;;-1.70;86.30;;;;;;4995695;28;20046;-79
2024/01/11 04:15:23;;;;;;;29.08;14.80;;;-1.90;86.40;;;;;;4995484;28;20042;-79
2024/01/11 04:17:49;;;;;;;26.95;13.40;;;-1.90;86.70;;;;;;4995471;28;20473;-78
2024/01/11 04:20:14;;;;;;;28.98;14.10;;;-1.90;86.70;;;;;;4995913;28;20030;-78
2024/01/11 04:22:40;;;;;;;28.60;13.55;;;-1.80;86.80;;;;;;4978441;28;20058;-79
2024/01/11 04:25:06;;;;;;;31.55;14.07;;;-1.90;87.00;;;;;;4995585;28;20038;-79
2024/01/11 04:27:32;;;;;;;26.45;13.18;;;-1.90;87.10;;;;;;4995451;28;20092;-79
2024/01/11 04:29:57;;;;;;;28.52;13.73;;;-2.00;87.10;;;;;;4995433;28;20038;-79
2024/01/11 04:32:23;;;;;;;27.73;13.45;;;-2.10;87.50;;;;;;4994574;28;20030;-78
2024/01/11 04:34:49;;;;;;;28.60;15.15;;;-2.20;87.90;;;;;;4994601;28;20358;-78
2024/01/11 04:37:14;;;;;;;31.38;13.48;;;-2.30;88.30;;;;;;4995563;28;20425;-78
2024/01/11 04:39:40;;;;;;;27.02;13.70;;;-2.30;88.50;;;;;;4995318;28;20035;-78
2024/01/11 04:42:06;;;;;;;30.05;14.80;;;-2.20;88.20;;;;;;4993921;28;20035;-78
2024/01/11 04:44:31;;;;;;;32.58;14.27;;;-2.10;88.10;;;;;;4995461;28;20035;-79
2024/01/11 04:46:57;;;;;;;26.35;13.52;;;-2.20;88.30;;;;;;4994893;28;20061;-78
2024/01/11 04:49:23;;;;;;;30.88;15.95;;;-2.00;88.30;;;;;;4962454;28;20026;-79
2024/01/11 04:51:48;;;;;;;29.85;15.30;;;-2.30;88.40;;;;;;4995089;28;20033;-78
2024/01/11 04:54:14;;;;;;;28.73;14.35;;;-2.60;89.50;;;;;;4993795;28;20102;-78
2024/01/11 04:56:39;;;;;;;31.42;14.73;;;-2.40;90.00;;;;;;4993486;28;20038;-78
2024/01/11 04:59:05;;;;;;;35.85;16.10;;;-2.30;89.70;;;;;;4995454;28;20461;-78
2024/01/11 05:01:30;;;;;;;30.00;14.48;;;-2.20;89.50;;;;;;4978012;28;20054;-78
2024/01/11 05:03:56;;;;;;;27.42;13.63;;;-2.10;89.20;;;;;;4994506;28;20133;-78
2024/01/11 05:06:22;;;;;;;28.95;15.00;;;-1.90;88.70;;;;;;4994786;28;20034;-79
2024/01/11 05:08:54;;;;;;;23.80;13.38;;;-1.60;88.40;;;;;;4993054;28;20034;-78
2024/01/11 05:11:26;;;;;;;30.75;14.98;;;-1.40;87.70;;;;;;4993789;28;20066;-79
2024/01/11 05:13:52;;;;;;;30.20;15.53;;;-1.30;87.00;;;;;;4993727;28;20396;-79
2024/01/11 05:16:25;;;;;;;31.10;16.25;;;-1.50;86.70;;;;;;4994658;28;20270;-78
2024/01/11 05:18:52;;;;;;;29.15;14.77;;;-1.60;87.10;;;;;;4994382;28;20058;-78
2024/01/11 05:21:18;;;;;;;26.63;14.30;;;-1.60;87.30;;;;;;4994900;28;20053;-78
2024/01/11 05:23:44;;;;;;;31.35;15.75;;;-1.60;87.40;;;;;;4994768;28;20089;-78
2024/01/11 05:26:10;;;;;;;32.30;16.77;;;-1.70;87.60;;;;;;4994797;28;20026;-78
2024/01/11 05:28:38;;;;;;;34.50;17.15;;;-1.90;88.00;;;;;;4993396;28;20061;-78
2024/01/11 05:31:09;;;;;;;34.63;17.85;;;-2.10;88.60;;;;;;4993272;28;20023;-78
2024/01/11 05:33:34;;;;;;;34.28;17.60;;;-2.20;89.50;;;;;;4978345;28;20113;-78
2024/01/11 05:36:00;;;;;;;33.20;16.58;;;-2.40;90.10;;;;;;4992791;28;20472;-78
2024/01/11 05:38:26;;;;;;;37.28;18.02;;;-2.50;90.30;;;;;;4993045;28;20081;-78
2024/01/11 05:40:52;;;;;;;32.97;17.35;;;-2.50;90.60;;;;;;4994215;28;20061;-78
2024/01/11 05:43:17;;;;;;;36.92;17.17;;;-2.50;90.70;;;;;;4994774;28;20042;-78
2024/01/11 05:45:43;;;;;;;33.20;16.83;;;-2.40;90.70;;;;;;4994209;28;20045;-78
2024/01/11 05:48:10;;;;;;;31.50;16.30;;;-2.40;90.60;;;;;;4992935;28;20381;-78
2024/01/11 05:50:36;;;;;;;30.90;16.52;;;-2.30;90.70;;;;;;4994065;28;20027;-78
2024/01/11 05:53:02;;;;;;;33.80;16.67;;;-2.10;90.60;;;;;;4994276;28;20338;-78
2024/01/11 05:55:28;;;;;;;36.05;17.42;;;-1.90;90.40;;;;;;4994072;28;20026;-77
2024/01/11 05:57:54;;;;;;;34.05;17.83;;;-1.70;90.10;;;;;;4993980;28;20035;-78
2024/01/11 06:00:20;;;;;;;35.97;18.50;;;-1.70;89.70;;;;;;4993773;28;20520;-78
2024/01/11 06:02:45;;;;;;;31.95;17.10;;;-1.70;89.50;;;;;;4993828;28;20038;-78
2024/01/11 06:05:12;;;;;;;35.40;16.27;;;-1.80;89.80;;;;;;4992969;28;20034;-78
2024/01/11 06:07:38;;;;;;;32.88;16.67;;;-1.70;89.80;;;;;;4993834;28;20035;-78
2024/01/11 06:10:05;;;;;;;37.90;18.00;;;-1.70;89.70;;;;;;4993673;28;20036;-77
2024/01/11 06:12:31;;;;;;;30.40;16.73;;;-1.70;89.60;;;;;;4993129;28;20026;-77
2024/01/11 06:14:58;;;;;;;27.05;14.57;;;-1.70;89.90;;;;;;4976468;28;20432;-78
2024/01/11 06:17:24;;;;;;;24.85;13.00;;;-1.40;90.90;;;;;;4993721;28;20122;-78
2024/01/11 06:19:50;;;;;;;32.03;16.02;;;-1.20;91.10;;;;;;4976587;28;20065;-78
2024/01/11 06:22:15;;;;;;;32.63;17.75;;;-0.80;92.40;;;;;;4997911;28;20054;-78
2024/01/11 06:24:41;;;;;;;37.22;17.90;;;-0.80;90.10;;;;;;4997895;28;20092;-78
2024/01/11 06:27:07;;;;;;;32.45;17.42;;;-1.10;88.40;;;;;;4997468;28;20539;-78
2024/01/11 06:29:33;;;;;;;32.72;17.65;;;-1.30;90.20;;;;;;4996435;28;20065;-78
2024/01/11 06:31:58;;;;;;;32.10;16.35;;;-1.20;90.50;;;;;;4997243;28;20116;-80
2024/01/11 06:34:24;;;;;;;32.08;17.23;;;-1.10;90.80;;;;;;4999757;28;20038;-77
2024/01/11 06:36:49;;;;;;;36.92;18.20;;;-0.70;91.40;;;;;;4998379;28;20023;-76
2024/01/11 06:39:15;;;;;;;35.70;18.80;;;-0.90;89.10;;;;;;4999978;28;20058;-80
2024/01/11 06:41:41;;;;;;;32.78;17.38;;;-1.00;88.20;;;;;;5000675;28;20038;-74
2024/01/11 06:44:06;;;;;;;31.55;15.60;;;-1.40;88.70;;;;;;4997673;28;20030;-76
2024/01/11 06:46:32;;;;;;;33.35;18.73;;;-1.40;90.30;;;;;;4996172;28;20085;-77
2024/01/11 06:48:58;;;;;;;37.78;18.40;;;-1.20;90.20;;;;;;4997003;28;20038;-77
2024/01/11 06:51:23;;;;;;;30.17;16.58;;;-0.90;91.10;;;;;;4997518;28;20073;-77
2024/01/11 06:53:50;;;;;;;31.40;16.95;;;-0.90;89.80;;;;;;4997107;28;20034;-76
2024/01/11 06:56:19;;;;;;;38.20;19.88;;;-0.60;91.40;;;;;;4996865;28;20425;-76
2024/01/11 06:58:47;;;;;;;35.90;19.10;;;-0.40;89.90;;;;;;4997314;28;20027;-76
2024/01/11 07:01:13;;;;;;;36.25;19.50;;;-0.50;87.60;;;;;;4997576;28;20029;-76
2024/01/11 07:03:39;;;;;;;33.72;19.02;;;-0.60;88.10;;;;;;4998731;28;20031;-76
2024/01/11 07:06:06;;;;;;;36.35;19.17;;;-0.60;87.50;;;;;;4997032;28;20052;-72
2024/01/11 07:08:34;;;;;;;36.45;17.75;;;-0.70;88.30;;;;;;4996685;28;20118;-73
2024/01/11 07:11:02;;;;;;;35.40;19.15;;;-0.70;88.50;;;;;;4995684;28;20026;-73
2024/01/11 07:13:28;;;;;;;31.23;16.55;;;-0.60;87.90;;;;;;4996190;28;20038;-72
2024/01/11 07:15:55;;;;;;;34.72;19.13;;;-0.60;87.60;;;;;;4996698;28;20160;-76
2024/01/11 07:18:21;;;;;;;27.98;15.98;;;-0.40;89.20;;;;;;4997192;28;20026;-75
2024/01/11 07:20:47;;;;;;;22.20;12.55;;;-0.20;90.40;;;;;;4996156;28;20377;-71
2024/01/11 07:23:13;;;;;;;32.80;16.27;;;0.10;91.80;;;;;;4996855;28;20041;-72
2024/01/11 07:25:40;;;;;;;32.08;16.85;;;0.50;91.90;;;;;;4995309;28;20520;-71
2024/01/11 07:28:06;;;;;;;27.17;16.00;;;0.80;91.20;;;;;;4979246;28;20029;-72
2024/01/11 07:30:31;;;;;;;26.90;15.77;;;1.00;91.40;;;;;;4995535;28;20023;-74
2024/01/11 07:32:57;;;;;;;26.90;14.35;;;1.30;91.60;;;;;;4994558;28;20046;-73
2024/01/11 07:35:23;;;;;;;23.70;14.40;;;1.40;91.50;;;;;;4996143;28;20476;-73
2024/01/11 07:37:49;;;;;;;25.27;14.52;;;1.70;91.60;;;;;;4978851;28;20468;-73
2024/01/11 07:40:16;;;;;;;33.35;18.40;;;1.90;91.60;;;;;;4996161;28;20034;-72
2024/01/11 07:42:42;;;;;;;30.70;17.48;;;1.90;90.30;;;;;;4996434;28;20052;-72
2024/01/11 07:45:10;;;;;;;29.58;17.77;;;1.90;89.00;;;;;;4995575;28;20544;-72
2024/01/11 07:47:37;;;;;;;33.03;18.13;;;1.80;86.60;;;;;;4994694;28;20033;-72
2024/01/11 07:50:04;;;;;;;32.15;17.88;;;1.80;87.90;;;;;;4996268;28;20035;-72
2024/01/11 07:52:29;;;;;;;25.35;14.18;;;1.80;85.10;;;;;;4995787;28;20041;-72
2024/01/11 07:54:55;;;;;;;23.13;13.98;;;1.70;87.30;;;;;;4996118;28;20039;-70
2024/01/11 07:57:21;;;;;;;25.95;14.20;;;1.90;90.10;;;;;;4996096;28;20362;-74
2024/01/11 07:59:46;;;;;;;25.67;15.85;;;2.10;90.70;;;;;;4995937;28;20049;-71
2024/01/11 08:02:12;;;;;;;30.13;18.23;;;2.30;90.70;;;;;;4995576;28;20125;-72
2024/01/11 08:04:38;;;;;;;25.92;16.85;;;2.40;90.50;;;;;;4994220;28;20481;-72
2024/01/11 08:07:05;;;;;;;31.55;19.58;;;2.50;88.90;;;;;;4995431;28;20125;-72
2024/01/11 08:09:31;;;;;;;32.17;20.75;;;2.40;86.00;;;;;;4994803;28;20031;-72
2024/01/11 08:11:56;;;;;;;34.30;20.90;;;2.20;81.60;;;;;;4994379;28;20523;-72
2024/01/11 08:14:22;;;;;;;38.38;22.27;;;1.50;79.50;;;;;;4995242;28;20432;-72
2024/01/11 08:16:47;;;;;;;31.40;17.60;;;0.90;80.90;;;;;;4995681;28;20038;-71
2024/01/11 08:19:14;;;;;;;33.63;19.75;;;0.70;83.60;;;;;;4996323;28;20445;-72
2024/01/11 08:21:41;;;;;;;38.45;21.67;;;0.90;85.60;;;;;;4995110;28;20065;-71
2024/01/11 08:24:07;;;;;;;33.97;19.85;;;0.90;83.40;;;;;;4995259;28;20133;-71
2024/01/11 08:26:32;;;;;;;36.33;21.20;;;0.80;83.10;;;;;;4996302;28;20129;-72
2024/01/11 08:28:58;;;;;;;34.38;20.02;;;0.60;83.50;;;;;;4994196;28;20031;-72
2024/01/11 08:31:24;;;;;;;38.92;23.67;;;0.60;85.20;;;;;;4994218;28;20399;-72
2024/01/11 08:33:50;;;;;;;38.17;22.48;;;0.40;83.30;;;;;;4994665;28;20038;-70
2024/01/11 08:36:16;;;;;;;38.00;22.15;;;0.10;84.80;;;;;;4994802;28;20030;-71
2024/01/11 08:38:42;;;;;;;35.17;18.58;;;0.00;84.50;;;;;;4994710;28;20031;-71
2024/01/11 08:41:07;;;;;;;35.35;21.15;;;-0.20;86.80;;;;;;4993866;28;20084;-71
2024/01/11 08:43:33;;;;;;;37.70;22.05;;;-0.10;87.20;;;;;;4993960;28;20121;-70
2024/01/11 08:45:59;;;;;;;38.42;21.55;;;-0.10;87.90;;;;;;4993508;28;20045;-72
2024/01/11 08:48:25;;;;;;;39.25;21.73;;;-0.20;86.60;;;;;;4993552;28;20041;-70
2024/01/11 08:50:51;;;;;;;36.63;22.02;;;-0.30;86.30;;;;;;4993493;28;20097;-73
2024/01/11 08:53:17;;;;;;;37.05;21.77;;;-0.40;86.40;;;;;;4994989;28;20031;-71
2024/01/11 08:55:43;;;;;;;40.55;22.70;;;-0.30;88.20;;;;;;4994563;28;20490;-71
2024/01/11 08:58:10;;;;;;;41.33;21.92;;;0.00;88.20;;;;;;4993615;28;20022;-70
2024/01/11 09:00:36;;;;;;;38.90;21.65;;;0.10;86.70;;;;;;4994816;28;20031;-71
2024/01/11 09:03:03;;;;;;;40.55;22.55;;;0.30;86.80;;;;;;4977877;28;20431;-75
2024/01/11 09:05:29;;;;;;;42.00;24.02;;;0.60;87.40;;;;;;4994768;28;20031;-75
2024/01/11 09:07:55;;;;;;;41.53;23.05;;;0.70;84.60;;;;;;4994778;28;20034;-75
2024/01/11 09:10:21;;;;;;;45.70;25.55;;;0.50;83.90;;;;;;4961163;28;20030;-75
2024/01/11 09:12:46;;;;;;;44.53;25.02;;;0.50;83.90;;;;;;4993000;28;20037;-77
2024/01/11 09:15:12;;;;;;;43.15;24.30;;;0.50;83.90;;;;;;4994531;28;20354;-74
2024/01/11 09:17:38;;;;;;;40.38;24.60;;;0.60;83.90;;;;;;4994154;28;20069;-76
2024/01/11 09:20:05;;;;;;;40.00;22.38;;;0.80;85.10;;;;;;4994752;28;20027;-76
2024/01/11 09:22:31;;;;;;;40.53;22.75;;;1.00;84.40;;;;;;4994549;28;20083;-76
2024/01/11 09:24:56;;;;;;;38.38;21.83;;;1.10;83.60;;;;;;4993350;28;20037;-76
2024/01/11 09:27:22;;;;;;;45.97;23.70;;;1.40;85.40;;;;;;4994055;28;20432;-77
2024/01/11 09:29:48;;;;;;;44.20;24.92;;;1.50;83.30;;;;;;4993961;28;20069;-75
2024/01/11 09:32:13;;;;;;;46.88;26.15;;;1.10;82.10;;;;;;4994076;28;20061;-75
2024/01/11 09:34:39;;;;;;;44.08;24.48;;;0.50;83.00;;;;;;4994060;28;20041;-73
2024/01/11 09:37:05;;;;;;;45.50;25.90;;;0.20;85.50;;;;;;4993091;28;20089;-75
2024/01/11 09:39:30;;;;;;;45.97;24.92;;;0.00;85.60;;;;;;4993147;28;20416;-73
2024/01/11 09:42:07;;;;;;;48.67;25.50;;;-0.40;87.00;;;;;;4995228;28;20101;-74
2024/01/11 09:44:33;;;;;;;45.47;25.50;;;-0.40;88.50;;;;;;4992948;28;20026;-73
2024/01/11 09:47:01;;;;;;;43.50;24.92;;;-0.30;88.20;;;;;;4994168;28;20132;-75
2024/01/11 09:49:30;;;;;;;47.10;25.05;;;-0.10;88.00;;;;;;4992931;28;20025;-74
2024/01/11 09:51:56;;;;;;;49.97;26.73;;;0.00;87.60;;;;;;4994261;28;20128;-74
2024/01/11 09:54:24;;;;;;;44.85;25.23;;;0.20;87.60;;;;;;4992802;28;20354;-74
2024/01/11 09:56:53;;;;;;;46.17;25.63;;;0.20;87.10;;;;;;4993738;28;20022;-74
2024/01/11 09:59:23;;;;;;;47.67;25.63;;;0.10;87.40;;;;;;4993553;28;20031;-73
2024/01/11 10:01:49;;;;;;;46.58;24.95;;;0.00;87.90;;;;;;4993953;28;20027;-77
2024/01/11 10:04:18;;;;;;;38.95;22.67;;;0.00;87.90;;;;;;4994151;28;20081;-75
2024/01/11 10:06:44;;;;;;;42.70;23.90;;;0.30;88.70;;;;;;4992918;28;20469;-75
2024/01/11 10:09:10;;;;;;;44.72;24.08;;;0.70;87.80;;;;;;4993760;28;20018;-76
2024/01/11 10:11:36;;;;;;;41.15;23.27;;;0.70;86.50;;;;;;4994026;28;20027;-77
2024/01/11 10:14:02;;;;;;;40.30;23.35;;;0.70;86.50;;;;;;4993878;28;20497;-74
2024/01/11 10:16:29;;;;;;;43.67;24.50;;;0.70;86.20;;;;;;4992492;28;20470;-75
2024/01/11 10:18:55;;;;;;;41.55;23.55;;;0.60;86.80;;;;;;4994282;28;20034;-75
2024/01/11 10:21:21;;;;;;;39.90;23.05;;;0.60;87.40;;;;;;4992512;28;20050;-73
2024/01/11 10:23:49;;;;;;;43.08;23.80;;;0.70;87.60;;;;;;4993861;28;20080;-73
2024/01/11 10:26:19;;;;;;;51.78;25.95;;;0.80;87.60;;;;;;4992761;28;20033;-75
2024/01/11 10:28:45;;;;;;;42.75;24.23;;;1.00;87.50;;;;;;4993889;28;20037;-74
2024/01/11 10:31:11;;;;;;;39.22;22.05;;;0.90;87.20;;;;;;4993936;28;20075;-77
2024/01/11 10:33:37;;;;;;;42.78;23.10;;;0.90;88.40;;;;;;4994054;28;20469;-72
2024/01/11 10:36:04;;;;;;;39.28;22.30;;;1.40;90.00;;;;;;4993630;28;20030;-76
2024/01/11 10:38:35;;;;;;;40.85;22.73;;;1.70;88.40;;;;;;4994027;28;20027;-75
2024/01/11 10:41:05;;;;;;;34.47;20.48;;;1.90;87.10;;;;;;4994420;28;20461;-80
2024/01/11 10:43:32;;;;;;;33.33;18.75;;;1.60;88.80;;;;;;4993741;28;20490;-78
2024/01/11 10:46:04;;;;;;;30.25;17.17;;;1.30;90.50;;;;;;4993843;28;20034;-75
2024/01/11 10:48:32;;;;;;;31.27;16.77;;;0.90;92.00;;;;;;4994048;28;20018;-76
2024/01/11 10:51:02;;;;;;;28.85;16.17;;;0.60;93.20;;;;;;4994268;28;20034;-79
2024/01/11 10:53:47;;;;;;;28.35;14.85;;;0.40;94.40;;;;;;4994022;28;20101;-78
2024/01/11 10:56:15;;;;;;;30.42;16.23;;;0.40;95.40;;;;;;4992524;28;20027;-77
2024/01/11 10:58:42;;;;;;;33.13;16.35;;;0.50;96.20;;;;;;4993631;28;20037;-74
2024/01/11 11:01:09;;;;;;;31.80;15.65;;;0.40;97.10;;;;;;4993690;28;20030;-72
2024/01/11 11:03:36;;;;;;;31.58;15.80;;;0.40;98.20;;;;;;4993465;28;20030;-73
2024/01/11 11:06:03;;;;;;;35.00;16.38;;;0.40;99.00;;;;;;4994110;28;20037;-73
2024/01/11 11:08:29;;;;;;;39.95;16.55;;;0.20;99.90;;;;;;4997293;28;20034;-75
2024/01/11 11:10:57;;;;;;;38.85;16.17;;;0.10;99.90;;;;;;4996928;28;20034;-73
2024/01/11 11:13:23;;;;;;;39.15;17.42;;;0.10;99.90;;;;;;4996636;28;20042;-73
2024/01/11 11:15:49;;;;;;;34.92;15.85;;;0.00;99.90;;;;;;4995288;28;20117;-77
2024/01/11 11:18:16;;;;;;;38.33;16.15;;;0.30;99.90;;;;;;4995233;28;20114;-73
2024/01/11 11:20:42;;;;;;;36.20;16.02;;;0.50;99.90;;;;;;4995516;28;20037;-74
2024/01/11 11:23:10;;;;;;;39.60;17.20;;;0.50;99.90;;;;;;4997272;28;20085;-73
2024/01/11 11:25:36;;;;;;;37.63;15.95;;;0.60;99.90;;;;;;4994860;28;20034;-73
2024/01/11 11:28:06;;;;;;;33.90;14.90;;;0.70;99.90;;;;;;4996849;28;20524;-73
2024/01/11 11:30:32;;;;;;;36.83;17.17;;;0.80;99.90;;;;;;4996364;28;20034;-72
2024/01/11 11:33:06;;;;;;;35.85;15.35;;;0.90;99.90;;;;;;4994946;28;20396;-72
2024/01/11 11:35:32;;;;;;;37.85;16.45;;;0.70;99.90;;;;;;4996501;28;20023;-72
2024/01/11 11:37:58;;;;;;;32.90;15.23;;;0.90;99.90;;;;;;4995192;28;20080;-73
2024/01/11 11:40:39;;;;;;;36.63;16.13;;;1.10;99.90;;;;;;4978781;28;20026;-74
2024/01/11 11:43:06;;;;;;;32.35;14.77;;;1.30;99.90;;;;;;4995649;28;20038;-75
2024/01/11 11:45:32;;;;;;;32.67;15.18;;;1.50;99.90;;;;;;4996513;28;20022;-73
2024/01/11 11:47:58;;;;;;;33.85;15.95;;;1.60;99.90;;;;;;4996235;28;20037;-74
2024/01/11 11:50:24;;;;;;;36.50;17.00;;;1.70;99.90;;;;;;4996473;28;20030;-73
2024/01/11 11:52:59;;;;;;;33.47;14.85;;;1.80;99.90;;;;;;4994481;28;20026;-73
2024/01/11 11:55:25;;;;;;;34.65;15.35;;;1.80;99.90;;;;;;4996059;28;20029;-73
2024/01/11 11:57:52;;;;;;;34.08;16.00;;;1.90;99.90;;;;;;4996559;28;20023;-74
2024/01/11 12:00:23;;;;;;;32.78;14.63;;;2.10;99.90;;;;;;4996118;28;20084;-74
2024/01/11 12:02:51;;;;;;;24.25;12.35;;;2.20;99.90;;;;;;4994559;28;20117;-73
2024/01/11 12:05:18;;;;;;;28.50;13.55;;;2.40;99.90;;;;;;4995878;28;20015;-73
2024/01/11 12:07:45;;;;;;;23.58;12.48;;;2.50;99.90;;;;;;4995727;28;20042;-72
2024/01/11 12:10:11;;;;;;;29.52;14.90;;;2.70;99.90;;;;;;4994731;28;20058;-72
2024/01/11 12:12:38;;;;;;;29.25;13.88;;;2.90;99.90;;;;;;4995739;28;20031;-73
2024/01/11 12:15:05;;;;;;;30.38;15.13;;;2.90;99.90;;;;;;4995646;28;20041;-72
2024/01/11 12:17:30;;;;;;;30.95;15.20;;;2.80;99.90;;;;;;4995468;28;20460;-72
2024/01/11 12:19:56;;;;;;;29.70;15.27;;;2.60;99.90;;;;;;4994304;28;20054;-72
2024/01/11 12:22:22;;;;;;;32.58;15.77;;;2.40;99.90;;;;;;4995526;28;20389;-73
2024/01/11 12:24:47;;;;;;;26.88;13.20;;;2.30;99.90;;;;;;4995655;28;20077;-73
2024/01/11 12:27:14;;;;;;;30.45;15.57;;;2.40;99.90;;;;;;4994494;28;20033;-72